Time;durP1;ratioP1;P1;durP2;ratioP2;P2;SDS_P1;SDS_P2;PMS_P1;PMS_P2;Temp;Humidity;BMP_temperature;BMP_pressure;BME280_temperature;BME280_humidity;BME280_pressure;Samples;Min_cycle;Max_cycle;Signal;HPM_P1;HPM_P2
2021/05/01 00:02:24;;;;;;;15.75;9.23;;;;;;;5.80;92.60;100747.75;5022954;28;20411;-81
2021/05/01 00:04:51;;;;;;;17.67;10.35;;;;;;;5.83;92.42;100745.03;5019651;28;20145;-80
2021/05/01 00:07:18;;;;;;;17.17;9.93;;;;;;;5.86;92.38;100751.06;5061742;28;20034;-79
2021/05/01 00:09:45;;;;;;;15.68;10.30;;;;;;;5.77;92.75;100740.03;5025314;28;20061;-80
2021/05/01 00:12:11;;;;;;;19.65;10.02;;;;;;;5.73;93.57;100735.84;5041649;28;20069;-79
2021/05/01 00:14:39;;;;;;;20.83;10.60;;;;;;;5.83;92.60;100729.34;5014279;28;20038;-80
2021/05/01 00:17:06;;;;;;;15.82;9.95;;;;;;;5.89;92.65;100737.88;5018503;28;20283;-79
2021/05/01 00:19:34;;;;;;;13.90;9.70;;;;;;;5.84;93.20;100727.59;5019403;28;20057;-79
2021/05/01 00:22:00;;;;;;;16.80;10.68;;;;;;;5.73;93.68;100724.53;5045610;28;20050;-80
2021/05/01 00:24:27;;;;;;;16.60;10.80;;;;;;;5.74;93.56;100721.84;5017182;28;20137;-78
2021/05/01 00:26:54;;;;;;;18.70;10.32;;;;;;;5.70;93.40;100720.25;5019760;28;20077;-81
2021/05/01 00:29:21;;;;;;;14.35;9.95;;;;;;;5.69;94.01;100717.72;5024546;28;20499;-80
2021/05/01 00:31:48;;;;;;;16.77;10.75;;;;;;;5.64;94.41;100719.66;5022799;28;20054;-82
2021/05/01 00:34:14;;;;;;;17.60;10.00;;;;;;;5.77;94.00;100726.97;5034744;28;20084;-80
2021/05/01 00:36:41;;;;;;;15.18;10.20;;;;;;;5.83;93.61;100723.28;5031885;28;20046;-79
2021/05/01 00:39:11;;;;;;;14.95;10.70;;;;;;;5.80;93.39;100723.38;5028683;28;20061;-78
2021/05/01 00:41:38;;;;;;;20.40;10.32;;;;;;;5.77;93.43;100713.91;5000187;28;20092;-80
2021/05/01 00:44:06;;;;;;;17.00;10.55;;;;;;;5.72;93.66;100721.09;5022790;28;20119;-80
2021/05/01 00:46:33;;;;;;;16.45;10.10;;;;;;;5.78;94.79;100726.06;5021628;28;20058;-78
2021/05/01 00:49:00;;;;;;;21.33;11.32;;;;;;;5.98;92.49;100714.88;5032310;28;20057;-79
2021/05/01 00:51:27;;;;;;;14.00;9.25;;;;;;;6.03;92.53;100719.94;5064875;28;20042;-79
2021/05/01 00:53:53;;;;;;;17.40;10.07;;;;;;;6.10;92.46;100726.63;5026565;28;20113;-80
2021/05/01 00:56:20;;;;;;;20.50;11.43;;;;;;;6.10;92.12;100721.41;5038219;28;20116;-78
2021/05/01 00:58:47;;;;;;;19.83;10.82;;;;;;;5.94;92.68;100723.75;5031608;28;20064;-79
2021/05/01 01:01:17;;;;;;;17.73;10.70;;;;;;;5.79;93.47;100716.47;5027093;28;20046;-80
2021/05/01 01:03:46;;;;;;;18.30;11.65;;;;;;;5.69;94.13;100726.41;5031319;28;20046;-80
2021/05/01 01:06:14;;;;;;;16.20;10.80;;;;;;;5.66;94.63;100721.28;5029591;28;20240;-79
2021/05/01 01:08:42;;;;;;;17.40;11.55;;;;;;;5.59;95.38;100712.00;5024669;28;20126;-78
2021/05/01 01:11:08;;;;;;;18.80;10.55;;;;;;;5.74;94.62;100721.84;5029368;28;20052;-79
2021/05/01 01:13:35;;;;;;;16.38;10.98;;;;;;;5.96;93.09;100731.53;5033667;28;20068;-79
2021/05/01 01:16:03;;;;;;;18.33;11.18;;;;;;;5.80;93.79;100728.59;5052443;28;20481;-82
2021/05/01 01:18:31;;;;;;;20.40;11.07;;;;;;;5.71;93.85;100723.72;5023219;28;20052;-80
2021/05/01 01:21:00;;;;;;;18.95;11.10;;;;;;;5.67;94.93;100719.53;5016512;28;20052;-81
2021/05/01 01:23:28;;;;;;;21.98;12.15;;;;;;;5.77;94.02;100720.91;5018033;28;20074;-80
2021/05/01 01:25:54;;;;;;;17.83;11.63;;;;;;;5.74;93.81;100728.84;5037266;28;20236;-80
2021/05/01 01:28:21;;;;;;;20.60;12.25;;;;;;;5.70;94.71;100724.66;5024306;28;20058;-79
2021/05/01 01:30:48;;;;;;;18.17;10.75;;;;;;;5.77;94.11;100724.38;5022327;28;20411;-79
2021/05/01 01:33:15;;;;;;;16.17;10.15;;;;;;;5.80;93.37;100726.84;5021442;28;20049;-79
2021/05/01 01:35:51;;;;;;;17.38;10.93;;;;;;;5.70;94.21;100728.09;5021557;28;20050;-78
2021/05/01 01:38:18;;;;;;;17.50;11.25;;;;;;;5.81;94.40;100733.78;5026075;28;20061;-78
2021/05/01 01:40:45;;;;;;;21.92;12.18;;;;;;;5.89;93.57;100725.66;5027850;28;20062;-80
2021/05/01 01:43:11;;;;;;;20.05;13.00;;;;;;;5.81;94.02;100738.19;5033305;28;20056;-79
2021/05/01 01:45:38;;;;;;;19.23;12.15;;;;;;;5.63;94.74;100728.38;4997993;28;20145;-79
2021/05/01 01:48:05;;;;;;;21.75;12.10;;;;;;;5.52;95.43;100737.47;5037047;28;20033;-79
2021/05/01 01:50:32;;;;;;;17.05;11.40;;;;;;;5.68;95.46;100736.94;5020659;28;20436;-79
2021/05/01 01:52:59;;;;;;;19.67;11.77;;;;;;;5.70;94.67;100737.69;5015010;28;20218;-78
2021/05/01 01:55:26;;;;;;;20.88;12.57;;;;;;;5.68;94.84;100734.31;5010563;28;20053;-80
2021/05/01 01:57:53;;;;;;;17.02;11.93;;;;;;;5.77;94.77;100739.19;5038341;28;20228;-78
2021/05/01 02:00:26;;;;;;;22.77;12.93;;;;;;;5.72;94.67;100731.53;5033801;28;20030;-79
2021/05/01 02:02:53;;;;;;;19.73;11.85;;;;;;;5.76;94.96;100735.72;5032825;28;20039;-80
2021/05/01 02:05:21;;;;;;;21.83;10.98;;;;;;;5.87;94.65;100737.09;5019103;28;20069;-79
2021/05/01 02:07:48;;;;;;;19.05;11.25;;;;;;;5.97;93.48;100735.84;5012222;28;20061;-80
2021/05/01 02:10:16;;;;;;;18.65;12.57;;;;;;;5.91;93.67;100728.22;5019800;28;20085;-80
2021/05/01 02:12:44;;;;;;;27.65;12.95;;;;;;;5.83;94.37;100731.97;5007970;28;20614;-79
2021/05/01 02:15:16;;;;;;;16.60;11.27;;;;;;;5.93;93.26;100731.66;5028396;28;20060;-78
2021/05/01 02:17:48;;;;;;;16.92;12.00;;;;;;;5.93;93.90;100731.66;5029087;28;20142;-79
2021/05/01 02:20:20;;;;;;;18.05;11.50;;;;;;;5.93;93.34;100731.66;5027136;28;20072;-79
2021/05/01 02:22:50;;;;;;;17.27;12.10;;;;;;;5.82;93.70;100725.03;5028579;28;20038;-79
2021/05/01 02:25:17;;;;;;;17.92;11.90;;;;;;;5.97;94.13;100722.78;5022019;28;20111;-79
2021/05/01 02:27:44;;;;;;;18.90;12.25;;;;;;;5.92;93.44;100732.56;5028406;28;20053;-79
2021/05/01 02:30:14;;;;;;;21.25;12.23;;;;;;;5.81;93.58;100731.19;5031174;28;20042;-79
2021/05/01 02:32:41;;;;;;;20.33;11.52;;;;;;;5.93;93.20;100726.41;5065822;28;20088;-79
2021/05/01 02:35:11;;;;;;;18.45;12.05;;;;;;;5.88;92.92;100721.34;5026497;28;20064;-79
2021/05/01 02:37:37;;;;;;;17.45;12.18;;;;;;;5.86;92.81;100723.16;5034711;28;20113;-79
2021/05/01 02:40:06;;;;;;;18.95;12.32;;;;;;;5.83;93.28;100718.06;5023124;28;20157;-81
2021/05/01 02:42:32;;;;;;;18.52;13.43;;;;;;;5.76;94.06;100719.19;5032376;28;20041;-79
2021/05/01 02:44:59;;;;;;;19.70;12.57;;;;;;;5.79;94.09;100719.94;5023336;28;20042;-80
2021/05/01 02:47:26;;;;;;;20.58;13.05;;;;;;;5.80;93.93;100713.78;5035464;28;20077;-78
2021/05/01 02:50:05;;;;;;;22.35;13.50;;;;;;;5.83;93.58;100710.22;5038538;28;20069;-80
2021/05/01 02:52:32;;;;;;;19.88;14.82;;;;;;;5.90;93.04;100701.25;5035947;28;20038;-78
2021/05/01 02:54:59;;;;;;;20.58;14.10;;;;;;;5.91;92.45;100702.09;5025427;28;20060;-80
2021/05/01 02:57:25;;;;;;;24.20;14.43;;;;;;;5.87;92.93;100685.69;5018089;28;20291;-79
2021/05/01 02:59:52;;;;;;;21.75;13.68;;;;;;;5.90;93.04;100689.91;5024620;28;20084;-79
2021/05/01 03:02:19;;;;;;;18.10;13.40;;;;;;;5.96;92.74;100684.50;5016491;28;20056;-78
2021/05/01 03:04:46;;;;;;;19.50;13.80;;;;;;;5.89;93.03;100689.06;5013734;28;20049;-80
2021/05/01 03:07:13;;;;;;;21.40;13.13;;;;;;;6.02;92.33;100684.25;5014364;28;20094;-79
2021/05/01 03:09:40;;;;;;;19.90;13.52;;;;;;;5.93;92.62;100684.63;5014579;28;20111;-79
2021/05/01 03:12:07;;;;;;;18.90;13.30;;;;;;;6.01;92.47;100682.56;5014379;28;20046;-80
2021/05/01 03:14:33;;;;;;;21.15;13.48;;;;;;;6.02;92.34;100682.50;5015809;28;20115;-80
2021/05/01 03:17:00;;;;;;;23.20;14.55;;;;;;;6.03;92.42;100679.00;5020237;28;20185;-77
2021/05/01 03:19:27;;;;;;;25.10;14.80;;;;;;;6.14;91.50;100675.94;5032588;28;20049;-79
2021/05/01 03:21:54;;;;;;;22.98;14.15;;;;;;;5.90;92.95;100676.84;5044238;28;20037;-77
2021/05/01 03:24:21;;;;;;;29.02;15.32;;;;;;;5.91;92.68;100678.59;5038215;28;20053;-79
2021/05/01 03:26:47;;;;;;;26.63;14.82;;;;;;;5.99;92.37;100674.78;5032537;28;20026;-79
2021/05/01 03:29:14;;;;;;;22.13;14.85;;;;;;;5.90;93.14;100679.47;5034665;28;20061;-78
2021/05/01 03:31:41;;;;;;;23.40;14.68;;;;;;;5.88;92.84;100673.47;5029467;28;20064;-79
2021/05/01 03:34:08;;;;;;;29.20;15.45;;;;;;;6.13;91.83;100678.63;5035543;28;20065;-79
2021/05/01 03:36:35;;;;;;;27.40;15.32;;;;;;;6.13;91.72;100670.78;5034333;28;20062;-79
2021/05/01 03:39:02;;;;;;;22.02;14.85;;;;;;;6.03;91.27;100660.69;5068089;28;20058;-79
2021/05/01 03:41:29;;;;;;;26.17;14.43;;;;;;;5.89;92.17;100665.56;5012917;28;20252;-80
2021/05/01 03:43:56;;;;;;;24.02;14.43;;;;;;;6.08;91.51;100666.59;5010063;28;20137;-78
2021/05/01 03:46:23;;;;;;;20.23;15.65;;;;;;;6.07;91.00;100669.25;5046689;28;20057;-78
2021/05/01 03:48:54;;;;;;;22.98;14.85;;;;;;;6.02;91.47;100663.34;5038810;28;20736;-79
2021/05/01 03:51:21;;;;;;;23.42;14.93;;;;;;;5.80;92.65;100664.16;5060294;28;20053;-79
2021/05/01 03:53:48;;;;;;;29.75;17.00;;;;;;;5.83;93.29;100657.97;5046915;28;20057;-79
2021/05/01 03:56:15;;;;;;;21.15;15.77;;;;;;;5.85;93.16;100661.34;5065586;28;20063;-81
2021/05/01 03:58:42;;;;;;;24.10;16.85;;;;;;;5.86;92.89;100670.06;5020436;28;20054;-80
2021/05/01 04:01:09;;;;;;;29.05;15.18;;;;;;;5.91;92.78;100682.03;5032164;28;20151;-79
2021/05/01 04:03:36;;;;;;;24.27;14.90;;;;;;;5.92;93.06;100672.47;5049724;22;20380;-75
2021/05/01 04:06:05;;;;;;;26.88;15.90;;;;;;;5.90;92.56;100680.34;5034998;28;20153;-73
2021/05/01 04:08:32;;;;;;;22.75;15.48;;;;;;;5.81;93.38;100672.88;5031528;28;20140;-73
2021/05/01 04:10:59;;;;;;;21.38;15.27;;;;;;;5.92;93.59;100672.47;5016149;28;20490;-73
2021/05/01 04:13:26;;;;;;;27.00;15.73;;;;;;;6.08;92.38;100682.28;5043637;28;20405;-73
2021/05/01 04:15:52;;;;;;;25.40;16.60;;;;;;;6.15;91.76;100680.25;5040754;28;20139;-76
2021/05/01 04:18:21;;;;;;;23.98;15.43;;;;;;;6.11;92.16;100675.22;5038488;28;20383;-75
2021/05/01 04:20:47;;;;;;;24.10;16.23;;;;;;;6.05;92.24;100677.16;5025658;28;20418;-73
2021/05/01 04:23:14;;;;;;;26.83;16.88;;;;;;;6.10;92.31;100674.34;5042855;28;20526;-74
2021/05/01 04:25:41;;;;;;;24.70;16.25;;;;;;;6.15;92.87;100676.78;5014648;28;20130;-73
2021/05/01 04:28:08;;;;;;;22.92;15.75;;;;;;;6.27;91.59;100676.31;5046161;28;20061;-75
2021/05/01 04:30:34;;;;;;;22.10;15.55;;;;;;;6.30;91.53;100673.53;5025423;28;20137;-75
2021/05/01 04:33:01;;;;;;;20.52;14.07;;;;;;;6.34;91.31;100677.75;5037982;28;20053;-74
2021/05/01 04:35:28;;;;;;;23.80;16.45;;;;;;;6.32;90.88;100679.59;5026481;28;20140;-73
2021/05/01 04:37:54;;;;;;;24.83;15.55;;;;;;;6.37;90.91;100677.63;5047341;28;20055;-77
2021/05/01 04:40:21;;;;;;;20.70;14.75;;;;;;;6.43;91.12;100685.22;5027970;28;20112;-73
2021/05/01 04:42:48;;;;;;;28.00;15.30;;;;;;;6.44;90.88;100676.47;5053534;28;20507;-78
2021/05/01 04:45:16;;;;;;;25.63;15.15;;;;;;;6.47;90.23;100681.56;5046321;28;20088;-72
2021/05/01 04:47:43;;;;;;;23.38;15.05;;;;;;;6.38;90.66;100681.94;5044199;28;20144;-73
2021/05/01 04:50:11;;;;;;;24.63;16.00;;;;;;;6.48;90.98;100685.03;5026995;28;20052;-73
2021/05/01 04:52:38;;;;;;;26.23;15.55;;;;;;;6.52;90.39;100684.00;5044220;28;20596;-75
2021/05/01 04:55:15;;;;;;;25.58;16.48;;;;;;;6.53;90.46;100685.72;5046741;28;20049;-73
2021/05/01 04:57:47;;;;;;;22.65;14.55;;;;;;;6.70;89.48;100685.84;5052075;23;20451;-69
2021/05/01 05:00:17;;;;;;;22.80;13.52;;;;;;;6.73;88.89;100695.34;5042384;28;20052;-69
2021/05/01 05:02:45;;;;;;;21.02;13.90;;;;;;;6.74;88.78;100687.41;5027222;28;20049;-68
2021/05/01 05:05:13;;;;;;;20.67;14.73;;;;;;;6.68;89.41;100692.06;5035719;28;20053;-69
2021/05/01 05:07:41;;;;;;;23.30;14.95;;;;;;;6.82;88.87;100690.56;5045220;28;20056;-68
2021/05/01 05:10:10;;;;;;;25.58;13.75;;;;;;;6.78;89.23;100690.75;5060422;28;20056;-69
2021/05/01 05:12:37;;;;;;;22.73;15.82;;;;;;;6.71;89.28;100700.66;5036319;28;20137;-69
2021/05/01 05:15:04;;;;;;;22.83;13.80;;;;;;;6.76;89.06;100703.91;5039248;28;20136;-69
2021/05/01 05:17:31;;;;;;;21.73;14.52;;;;;;;6.60;89.65;100705.44;5022219;28;20065;-69
2021/05/01 05:19:58;;;;;;;23.73;16.00;;;;;;;6.52;90.43;100704.91;5026999;28;20614;-68
2021/05/01 05:22:25;;;;;;;23.58;14.75;;;;;;;6.62;90.40;100703.63;5020536;28;20049;-69
2021/05/01 05:24:52;;;;;;;22.88;14.70;;;;;;;6.64;90.16;100700.94;5026829;28;20045;-69
2021/05/01 05:27:20;;;;;;;25.42;14.80;;;;;;;6.64;90.10;100704.41;5045019;28;20495;-68
2021/05/01 05:29:50;;;;;;;24.98;15.75;;;;;;;6.51;91.00;100696.22;5040189;28;20136;-68
2021/05/01 05:32:19;;;;;;;25.25;15.40;;;;;;;6.60;91.35;100701.06;5042137;28;20099;-69
2021/05/01 05:34:46;;;;;;;27.40;15.57;;;;;;;6.66;90.69;100702.56;5047103;28;20156;-68
2021/05/01 05:37:14;;;;;;;26.88;16.15;;;;;;;6.66;91.26;100701.72;5041503;28;20045;-68
2021/05/01 05:39:43;;;;;;;26.27;16.13;;;;;;;6.70;91.25;100704.16;5012389;28;20060;-69
2021/05/01 05:42:10;;;;;;;29.42;15.55;;;;;;;6.82;91.18;100694.94;5051527;28;20080;-69
2021/05/01 05:44:40;;;;;;;27.83;15.98;;;;;;;6.79;91.26;100706.38;5054222;28;20057;-69
2021/05/01 05:47:07;;;;;;;27.77;15.40;;;;;;;6.87;90.40;100713.06;5061511;28;20116;-70
2021/05/01 05:49:35;;;;;;;28.55;16.75;;;;;;;6.90;90.70;100713.81;5052070;28;20080;-71
2021/05/01 05:52:01;;;;;;;33.35;16.27;;;;;;;6.94;90.70;100718.00;5014965;28;20295;-70
2021/05/01 05:54:28;;;;;;;29.15;15.07;;;;;;;7.01;90.36;100718.56;5031623;28;20049;-70
2021/05/01 05:56:55;;;;;;;28.10;15.93;;;;;;;6.94;90.72;100714.53;5046875;28;20056;-70
2021/05/01 05:59:22;;;;;;;24.88;14.88;;;;;;;7.08;90.32;100718.25;5066027;28;20051;-69
2021/05/01 06:01:49;;;;;;;36.65;15.73;;;;;;;7.12;90.28;100715.50;5064023;28;20124;-70
2021/05/01 06:04:21;;;;;;;25.50;14.85;;;;;;;7.25;89.50;100711.41;5059187;28;20075;-70
2021/05/01 06:06:54;;;;;;;27.38;15.02;;;;;;;7.20;89.53;100703.75;5043257;28;20049;-69
2021/05/01 06:09:21;;;;;;;33.65;15.35;;;;;;;7.28;89.15;100706.91;5031123;28;20169;-69
2021/05/01 06:11:49;;;;;;;31.88;15.30;;;;;;;7.39;88.67;100714.31;5047598;28;20523;-68
2021/05/01 06:14:16;;;;;;;26.05;15.48;;;;;;;7.35;88.90;100712.72;5042883;28;20126;-71
2021/05/01 06:16:44;;;;;;;24.42;15.13;;;;;;;7.32;88.95;100708.47;5043674;28;20528;-69
2021/05/01 06:19:11;;;;;;;27.95;15.70;;;;;;;7.32;89.21;100705.84;5040155;28;20137;-70
2021/05/01 06:21:38;;;;;;;28.17;15.52;;;;;;;7.50;89.17;100709.41;5050069;28;20545;-69
2021/05/01 06:24:07;;;;;;;32.85;16.48;;;;;;;7.50;87.54;100706.78;5060917;28;20049;-67
2021/05/01 06:26:36;;;;;;;27.67;17.65;;;;;;;7.60;86.92;100708.06;5059549;28;20044;-70
2021/05/01 06:29:05;;;;;;;30.92;16.38;;;;;;;7.84;85.69;100700.03;5040832;28;20063;-69
2021/05/01 06:31:37;;;;;;;27.33;16.13;;;;;;;7.84;85.76;100703.50;5044295;28;20136;-68
2021/05/01 06:34:05;;;;;;;32.30;15.38;;;;;;;7.83;85.54;100704.44;5029400;28;20114;-69
2021/05/01 06:36:32;;;;;;;27.35;16.00;;;;;;;8.07;84.75;100705.03;5046933;28;20047;-68
2021/05/01 06:39:04;;;;;;;27.77;15.43;;;;;;;8.20;83.86;100697.44;5045852;28;20808;-70
2021/05/01 06:41:39;;;;;;;29.23;16.23;;;;;;;8.41;82.72;100702.59;5046677;28;20055;-68
2021/05/01 06:44:10;;;;;;;26.85;15.90;;;;;;;8.46;81.93;100705.84;5043549;28;20048;-68
2021/05/01 06:46:40;;;;;;;26.48;15.77;;;;;;;8.21;83.30;100700.91;5029139;28;20050;-70
2021/05/01 06:49:11;;;;;;;37.85;17.00;;;;;;;8.26;83.78;100710.25;5041741;28;20536;-69
2021/05/01 06:51:40;;;;;;;26.45;16.10;;;;;;;8.23;82.72;100709.56;5048557;28;20570;-68
2021/05/01 06:54:08;;;;;;;27.70;16.25;;;;;;;8.21;83.69;100707.00;5048396;28;20139;-70
2021/05/01 06:56:43;;;;;;;31.63;16.23;;;;;;;7.89;84.31;100708.53;5038356;28;20057;-71
2021/05/01 06:59:10;;;;;;;27.37;16.40;;;;;;;7.94;84.49;100711.78;5057418;28;20056;-69
2021/05/01 07:01:40;;;;;;;31.77;15.55;;;;;;;8.03;84.17;100713.97;5037598;28;20584;-69
2021/05/01 07:04:08;;;;;;;33.33;15.70;;;;;;;8.22;83.39;100710.47;5046580;28;20548;-70
2021/05/01 07:06:36;;;;;;;26.17;15.82;;;;;;;8.29;82.92;100707.50;5037892;28;20565;-69
2021/05/01 07:09:06;;;;;;;30.70;16.27;;;;;;;8.32;83.00;100699.47;5040082;28;20116;-70
2021/05/01 07:11:33;;;;;;;29.40;16.95;;;;;;;8.47;82.54;100705.78;5039898;28;20052;-70
2021/05/01 07:14:02;;;;;;;31.17;17.85;;;;;;;8.54;82.18;100709.78;5051072;28;20124;-69
2021/05/01 07:16:28;;;;;;;31.55;16.23;;;;;;;8.68;81.19;100710.91;5060530;28;20743;-68
2021/05/01 07:18:55;;;;;;;27.92;17.27;;;;;;;8.57;81.09;100712.28;5028707;28;20143;-70
2021/05/01 07:21:23;;;;;;;24.65;16.05;;;;;;;8.63;81.23;100711.97;5038896;28;20060;-70
2021/05/01 07:23:49;;;;;;;26.05;16.42;;;;;;;8.60;81.04;100709.50;5041908;28;20049;-68
2021/05/01 07:26:19;;;;;;;28.92;16.92;;;;;;;8.50;81.81;100710.03;5040834;28;20140;-68
2021/05/01 07:28:49;;;;;;;28.83;17.08;;;;;;;8.36;82.59;100714.16;5043978;28;20405;-70
2021/05/01 07:31:24;;;;;;;28.35;17.73;;;;;;;8.41;82.68;100726.22;5037988;28;20053;-69
2021/05/01 07:33:53;;;;;;;33.25;16.65;;;;;;;8.52;82.06;100721.31;5037656;28;20058;-71
2021/05/01 07:36:28;;;;;;;29.98;15.68;;;;;;;8.74;80.83;100713.22;5042965;28;20057;-68
2021/05/01 07:38:58;;;;;;;27.92;16.40;;;;;;;8.74;81.19;100721.94;5046867;28;20057;-69
2021/05/01 07:41:28;;;;;;;30.40;15.48;;;;;;;8.68;80.90;100717.00;5044294;28;20072;-68
2021/05/01 07:43:55;;;;;;;27.42;16.23;;;;;;;8.69;80.70;100717.84;5045547;28;20071;-69
2021/05/01 07:46:26;;;;;;;28.55;16.23;;;;;;;8.83;80.94;100712.78;5045071;28;20187;-69
2021/05/01 07:48:54;;;;;;;29.15;15.85;;;;;;;9.04;80.64;100706.41;5041476;28;20044;-68
2021/05/01 07:51:22;;;;;;;28.98;15.57;;;;;;;9.10;79.47;100711.38;5056879;28;20059;-70
2021/05/01 07:54:02;;;;;;;25.83;15.48;;;;;;;9.05;80.01;100702.88;5036092;28;20076;-69
2021/05/01 07:56:29;;;;;;;30.13;17.13;;;;;;;8.86;79.69;100708.19;5043736;28;20064;-68
2021/05/01 07:58:56;;;;;;;27.00;16.48;;;;;;;8.88;79.48;100706.34;5050072;28;20048;-70
2021/05/01 08:01:26;;;;;;;26.13;17.15;;;;;;;8.94;79.03;100706.97;5037096;28;21642;-68
2021/05/01 08:03:53;;;;;;;29.92;17.30;;;;;;;9.03;78.20;100703.88;5043598;28;20644;-69
2021/05/01 08:06:21;;;;;;;25.17;15.60;;;;;;;8.94;78.26;100714.84;5038581;28;20142;-70
2021/05/01 08:08:48;;;;;;;28.88;16.70;;;;;;;8.75;78.71;100713.16;5045914;28;20056;-70
2021/05/01 08:11:15;;;;;;;27.75;17.27;;;;;;;8.84;78.57;100709.22;5038516;28;20054;-69
2021/05/01 08:13:41;;;;;;;23.25;15.35;;;;;;;8.98;77.99;100701.47;5043099;28;20059;-69
2021/05/01 08:16:08;;;;;;;27.63;16.55;;;;;;;8.94;78.12;100701.72;5037904;28;20041;-70
2021/05/01 08:18:36;;;;;;;23.80;15.90;;;;;;;9.28;77.09;100706.94;5049860;28;20049;-70
2021/05/01 08:21:03;;;;;;;22.80;15.98;;;;;;;9.53;75.51;100689.88;5033090;28;20041;-69
2021/05/01 08:23:32;;;;;;;25.30;16.08;;;;;;;9.70;75.15;100694.22;5039576;28;20124;-69
2021/05/01 08:26:00;;;;;;;26.13;15.82;;;;;;;9.70;75.11;100694.22;5038550;28;20170;-69
2021/05/01 08:28:27;;;;;;;25.00;16.13;;;;;;;9.94;74.75;100697.28;5038872;28;20640;-69
2021/05/01 08:30:54;;;;;;;25.67;15.70;;;;;;;10.48;71.86;100690.72;5039961;28;20055;-69
2021/05/01 08:33:20;;;;;;;25.20;16.42;;;;;;;10.60;71.27;100697.09;5019340;28;20068;-70
2021/05/01 08:35:51;;;;;;;26.38;15.50;;;;;;;10.91;69.54;100680.34;5043037;28;20067;-69
2021/05/01 08:38:20;;;;;;;23.38;14.98;;;;;;;11.62;67.71;100682.16;5029523;28;20583;-69
2021/05/01 08:40:49;;;;;;;24.27;14.75;;;;;;;12.00;65.80;100679.78;5055057;28;20060;-70
2021/05/01 08:43:16;;;;;;;26.08;16.65;;;;;;;12.54;63.36;100684.19;5062162;28;20040;-69
2021/05/01 08:45:46;;;;;;;21.85;14.43;;;;;;;12.79;61.74;100680.75;5042941;28;20053;-70
2021/05/01 08:48:14;;;;;;;22.75;14.95;;;;;;;13.25;60.65;100675.88;5037502;28;20068;-69
2021/05/01 08:50:50;;;;;;;21.08;13.95;;;;;;;13.80;58.52;100676.44;5039429;28;20130;-69
2021/05/01 08:53:17;;;;;;;22.05;14.20;;;;;;;14.14;56.24;100677.50;5042570;28;20048;-68
2021/05/01 08:55:44;;;;;;;19.67;13.95;;;;;;;13.99;56.93;100668.84;5028044;28;20166;-69
2021/05/01 08:58:11;;;;;;;22.70;15.10;;;;;;;14.34;56.03;100670.72;5041120;28;20040;-69
2021/05/01 09:00:43;;;;;;;18.83;13.77;;;;;;;14.23;56.22;100676.81;5039401;28;20469;-70
2021/05/01 09:03:17;;;;;;;19.98;14.65;;;;;;;13.83;56.47;100660.34;5042239;28;20069;-72
2021/05/01 09:05:45;;;;;;;20.33;12.82;;;;;;;13.56;57.67;100668.44;5048830;28;20495;-69
2021/05/01 09:08:13;;;;;;;17.13;13.68;;;;;;;13.98;55.78;100675.09;5047526;28;20139;-70
2021/05/01 09:10:42;;;;;;;20.50;14.13;;;;;;;13.60;56.79;100673.41;5045518;28;20067;-70
2021/05/01 09:13:17;;;;;;;20.02;13.50;;;;;;;12.99;58.76;100666.22;5045718;28;20076;-69
2021/05/01 09:15:58;;;;;;;19.67;13.63;;;;;;;12.67;59.48;100672.72;5035473;28;20157;-70
2021/05/01 09:18:26;;;;;;;19.17;13.13;;;;;;;12.89;59.21;100658.06;5057170;28;20045;-69
2021/05/01 09:20:53;;;;;;;17.98;13.88;;;;;;;13.07;59.26;100659.44;5051463;28;20049;-71
2021/05/01 09:23:19;;;;;;;19.27;12.88;;;;;;;13.89;56.68;100673.13;5043326;28;20132;-70
2021/05/01 09:25:58;;;;;;;18.00;12.32;;;;;;;14.38;54.34;100667.75;5025519;28;20053;-69
2021/05/01 09:28:38;;;;;;;18.77;14.10;;;;;;;12.73;57.71;100654.75;5059632;28;20570;-68
2021/05/01 09:31:07;;;;;;;21.63;15.38;;;;;;;12.99;58.43;100664.41;5054550;28;20094;-70
2021/05/01 09:33:36;;;;;;;17.27;13.45;;;;;;;13.60;55.98;100657.53;5044577;28;20120;-70
2021/05/01 09:36:06;;;;;;;19.42;13.77;;;;;;;13.68;55.86;100655.16;5038114;28;20071;-73
2021/05/01 09:38:37;;;;;;;16.33;12.38;;;;;;;13.52;56.74;100656.41;5050358;28;20587;-69
2021/05/01 09:41:13;;;;;;;17.42;12.32;;;;;;;13.54;55.91;100662.41;5047375;28;20041;-69
2021/05/01 09:43:57;;;;;;;;;;;;;;;12.89;56.81;100658.06;5031926;28;20747;-70
2021/05/01 09:46:24;;;;;;;19.40;13.93;;;;;;;12.25;59.09;100659.69;5036815;28;19932;-69
2021/05/01 09:49:06;;;;;;;18.17;13.90;;;;;;;12.76;58.29;100651.94;5029022;28;20506;-71
2021/05/01 09:51:55;;;;;;;18.42;12.70;;;;;;;13.41;56.65;100649.19;5044502;28;20058;-68
2021/05/01 09:54:27;;;;;;;18.45;14.25;;;;;;;13.84;55.05;100648.81;5031744;28;20444;-69
2021/05/01 09:56:55;;;;;;;21.65;13.32;;;;;;;13.99;54.81;100652.13;5036193;28;20068;-70
2021/05/01 09:59:45;;;;;;;20.77;13.75;;;;;;;13.99;54.37;100637.09;5060257;28;20051;-68
2021/05/01 10:02:13;;;;;;;20.13;13.68;;;;;;;13.83;55.26;100640.03;5029207;28;20060;-71
2021/05/01 10:04:41;;;;;;;18.48;13.82;;;;;;;13.59;55.35;100639.97;5044401;28;20128;-69
2021/05/01 10:07:10;;;;;;;21.63;14.20;;;;;;;13.96;54.21;100633.81;5047258;28;20192;-69
2021/05/01 10:09:38;;;;;;;19.38;12.85;;;;;;;14.18;53.66;100634.81;5055313;28;20144;-69
2021/05/01 10:12:10;;;;;;;16.27;12.93;;;;;;;14.17;52.64;100633.09;5052860;28;20081;-69
2021/05/01 10:14:47;;;;;;;16.13;12.15;;;;;;;14.39;52.04;100644.75;5055061;28;20041;-70
2021/05/01 10:17:16;;;;;;;15.15;11.60;;;;;;;14.39;51.10;100647.41;5053156;28;20083;-70
2021/05/01 10:19:44;;;;;;;12.75;11.07;;;;;;;14.09;51.40;100645.19;5014205;28;20503;-69
2021/05/01 10:22:37;;;;;;;15.70;12.00;;;;;;;14.09;51.05;100645.19;5050272;28;20436;-69
2021/05/01 10:25:07;;;;;;;17.52;12.05;;;;;;;13.62;51.49;100652.13;5042822;28;20542;-70
2021/05/01 10:27:41;;;;;;;17.95;12.77;;;;;;;13.36;53.31;100646.03;5050063;28;20061;-69
2021/05/01 10:30:16;;;;;;;18.38;13.05;;;;;;;13.33;53.92;100638.34;5048964;28;20121;-70
2021/05/01 10:32:52;;;;;;;16.45;12.00;;;;;;;13.04;54.75;100646.44;5050418;28;20055;-72
2021/05/01 10:35:18;;;;;;;;;;;;;;;13.33;55.39;100644.47;5042434;28;20560;-71
2021/05/01 10:37:56;;;;;;;17.77;10.95;;;;;;;13.21;54.01;100644.44;5045446;28;19925;-70
2021/05/01 10:40:24;;;;;;;17.15;12.75;;;;;;;12.88;54.98;100643.19;5043291;28;20053;-68
2021/05/01 10:43:27;;;;;;;15.77;12.15;;;;;;;12.85;55.23;100627.53;5015537;28;20129;-71
2021/05/01 10:46:05;;;;;;;19.90;12.38;;;;;;;13.00;54.91;100622.97;5014634;28;20042;-70
2021/05/01 10:48:47;;;;;;;17.70;12.15;;;;;;;13.17;54.59;100628.78;5045162;28;20136;-69
2021/05/01 10:51:15;;;;;;;16.33;10.90;;;;;;;13.07;54.33;100624.25;5048935;28;20049;-69
2021/05/01 10:53:42;;;;;;;15.45;10.73;;;;;;;12.70;55.67;100617.97;5038945;28;20068;-69
2021/05/01 10:56:11;;;;;;;16.98;12.45;;;;;;;12.09;57.26;100628.19;5027774;28;20482;-70
2021/05/01 10:58:40;;;;;;;16.25;12.27;;;;;;;12.22;57.89;100628.25;5028246;28;20487;-69
2021/05/01 11:01:29;;;;;;;17.38;12.25;;;;;;;12.29;57.15;100618.97;5038539;28;20056;-69
2021/05/01 11:04:04;;;;;;;17.70;11.20;;;;;;;11.99;57.55;100624.47;5038668;28;20403;-69
2021/05/01 11:06:40;;;;;;;14.52;11.23;;;;;;;12.06;57.77;100628.38;5037656;28;20073;-70
2021/05/01 11:09:09;;;;;;;15.93;11.77;;;;;;;12.15;57.00;100630.44;5024828;28;20518;-69
2021/05/01 11:11:42;;;;;;;19.70;11.85;;;;;;;11.39;58.63;100636.13;5024066;28;20426;-70
2021/05/01 11:14:21;;;;;;;14.55;10.35;;;;;;;11.86;57.62;100638.44;5041905;28;20126;-68
2021/05/01 11:17:08;;;;;;;15.18;11.55;;;;;;;12.41;56.71;100640.13;5028245;28;20132;-70
2021/05/01 11:19:42;;;;;;;14.35;11.40;;;;;;;12.63;54.68;100646.63;5055904;28;20529;-70
2021/05/01 11:22:12;;;;;;;14.95;10.57;;;;;;;13.13;53.55;100637.03;5049447;28;20129;-69
2021/05/01 11:24:41;;;;;;;13.65;10.93;;;;;;;13.82;51.39;100648.03;5042208;28;20237;-69
2021/05/01 11:27:08;;;;;;;13.55;10.20;;;;;;;13.59;51.69;100637.31;5060769;28;20079;-70